sensor_id;sensor_type;location;lat;lon;timestamp;P1;durP1;ratioP1;P2;durP2;ratioP2
22673;SDS011;11504;43.334;21.918;2023-03-19T00:03:02;11.0;;;10.0;;
22673;SDS011;11504;43.334;21.918;2023-03-19T00:07:39;11.0;;;10.0;;
22673;SDS011;11504;43.334;21.918;2023-03-19T00:12:16;10.0;;;10.0;;
22673;SDS011;11504;43.334;21.918;2023-03-19T00:16:52;10.0;;;10.0;;
22673;SDS011;11504;43.334;21.918;2023-03-19T00:21:30;10.0;;;10.0;;
22673;SDS011;11504;43.334;21.918;2023-03-19T00:26:06;10.0;;;10.0;;
22673;SDS011;11504;43.334;21.918;2023-03-19T00:30:43;11.0;;;10.0;;
22673;SDS011;11504;43.334;21.918;2023-03-19T00:35:19;11.0;;;10.0;;
22673;SDS011;11504;43.334;21.918;2023-03-19T00:39:56;12.0;;;11.0;;
22673;SDS011;11504;43.334;21.918;2023-03-19T00:44:32;12.0;;;11.0;;
22673;SDS011;11504;43.334;21.918;2023-03-19T00:49:08;12.0;;;11.0;;
22673;SDS011;11504;43.334;21.918;2023-03-19T00:53:45;12.0;;;11.0;;
22673;SDS011;11504;43.334;21.918;2023-03-19T01:31:04;11.0;;;10.0;;
22673;SDS011;11504;43.334;21.918;2023-03-19T01:35:44;11.0;;;10.0;;
22673;SDS011;11504;43.334;21.918;2023-03-19T01:40:21;11.0;;;10.0;;
22673;SDS011;11504;43.334;21.918;2023-03-19T01:44:58;11.0;;;10.0;;
22673;SDS011;11504;43.334;21.918;2023-03-19T01:49:34;16.0;;;14.0;;
22673;SDS011;11504;43.334;21.918;2023-03-19T01:54:15;16.0;;;14.0;;
22673;SDS011;11504;43.334;21.918;2023-03-19T01:59:05;20.0;;;18.0;;
22673;SDS011;11504;43.334;21.918;2023-03-19T02:03:54;20.0;;;18.0;;
22673;SDS011;11504;43.334;21.918;2023-03-19T02:08:34;20.0;;;18.0;;
22673;SDS011;11504;43.334;21.918;2023-03-19T02:13:16;20.0;;;18.0;;
22673;SDS011;11504;43.334;21.918;2023-03-19T02:17:53;19.0;;;17.0;;
22673;SDS011;11504;43.334;21.918;2023-03-19T02:22:31;19.0;;;17.0;;
22673;SDS011;11504;43.334;21.918;2023-03-19T02:27:23;19.0;;;17.0;;
22673;SDS011;11504;43.334;21.918;2023-03-19T02:32:00;16.0;;;14.0;;
22673;SDS011;11504;43.334;21.918;2023-03-19T02:36:43;16.0;;;14.0;;
22673;SDS011;11504;43.334;21.918;2023-03-19T02:41:31;12.0;;;12.0;;
22673;SDS011;11504;43.334;21.918;2023-03-19T02:46:12;12.0;;;12.0;;
22673;SDS011;11504;43.334;21.918;2023-03-19T02:50:48;12.0;;;12.0;;
22673;SDS011;11504;43.334;21.918;2023-03-19T02:55:24;12.0;;;12.0;;
22673;SDS011;11504;43.334;21.918;2023-03-19T03:09:13;13.0;;;13.0;;
22673;SDS011;11504;43.334;21.918;2023-03-19T03:13:50;13.0;;;13.0;;
22673;SDS011;11504;43.334;21.918;2023-03-19T03:18:26;13.0;;;13.0;;
22673;SDS011;11504;43.334;21.918;2023-03-19T03:23:02;13.0;;;13.0;;
22673;SDS011;11504;43.334;21.918;2023-03-19T03:27:39;13.0;;;13.0;;
22673;SDS011;11504;43.334;21.918;2023-03-19T03:32:15;12.0;;;12.0;;
22673;SDS011;11504;43.334;21.918;2023-03-19T03:36:52;12.0;;;12.0;;
22673;SDS011;11504;43.334;21.918;2023-03-19T03:41:28;12.0;;;11.0;;
22673;SDS011;11504;43.334;21.918;2023-03-19T03:46:05;12.0;;;11.0;;
22673;SDS011;11504;43.334;21.918;2023-03-19T03:50:42;12.0;;;11.0;;
22673;SDS011;11504;43.334;21.918;2023-03-19T03:55:19;12.0;;;11.0;;
22673;SDS011;11504;43.334;21.918;2023-03-19T03:59:56;12.0;;;11.0;;
22673;SDS011;11504;43.334;21.918;2023-03-19T04:04:33;12.0;;;11.0;;
22673;SDS011;11504;43.334;21.918;2023-03-19T04:09:09;17.0;;;16.0;;
22673;SDS011;11504;43.334;21.918;2023-03-19T04:13:46;17.0;;;16.0;;
22673;SDS011;11504;43.334;21.918;2023-03-19T04:18:22;22.0;;;20.0;;
22673;SDS011;11504;43.334;21.918;2023-03-19T04:22:58;22.0;;;20.0;;
22673;SDS011;11504;43.334;21.918;2023-03-19T04:27:35;22.0;;;20.0;;
22673;SDS011;11504;43.334;21.918;2023-03-19T04:32:12;22.0;;;20.0;;
22673;SDS011;11504;43.334;21.918;2023-03-19T04:36:48;22.0;;;20.0;;
22673;SDS011;11504;43.334;21.918;2023-03-19T05:09:06;32.0;;;29.0;;
22673;SDS011;11504;43.334;21.918;2023-03-19T05:13:42;32.0;;;29.0;;
22673;SDS011;11504;43.334;21.918;2023-03-19T05:18:19;32.0;;;29.0;;
22673;SDS011;11504;43.334;21.918;2023-03-19T05:22:56;32.0;;;29.0;;
22673;SDS011;11504;43.334;21.918;2023-03-19T05:27:34;32.0;;;29.0;;
22673;SDS011;11504;43.334;21.918;2023-03-19T05:32:13;34.0;;;31.0;;
22673;SDS011;11504;43.334;21.918;2023-03-19T05:36:49;34.0;;;31.0;;
22673;SDS011;11504;43.334;21.918;2023-03-19T05:41:26;35.0;;;33.0;;
22673;SDS011;11504;43.334;21.918;2023-03-19T05:46:03;35.0;;;33.0;;
22673;SDS011;11504;43.334;21.918;2023-03-19T05:50:39;36.0;;;35.0;;
22673;SDS011;11504;43.334;21.918;2023-03-19T05:55:16;36.0;;;35.0;;
22673;SDS011;11504;43.334;21.918;2023-03-19T05:59:53;38.0;;;37.0;;
22673;SDS011;11504;43.334;21.918;2023-03-19T06:04:29;38.0;;;37.0;;
22673;SDS011;11504;43.334;21.918;2023-03-19T06:09:05;34.0;;;33.0;;
22673;SDS011;11504;43.334;21.918;2023-03-19T06:13:41;34.0;;;33.0;;
22673;SDS011;11504;43.334;21.918;2023-03-19T06:18:18;31.0;;;29.0;;
22673;SDS011;11504;43.334;21.918;2023-03-19T06:22:54;31.0;;;29.0;;
22673;SDS011;11504;43.334;21.918;2023-03-19T06:27:30;31.0;;;29.0;;
22673;SDS011;11504;43.334;21.918;2023-03-19T06:32:08;31.0;;;29.0;;
22673;SDS011;11504;43.334;21.918;2023-03-19T06:36:45;31.0;;;29.0;;
22673;SDS011;11504;43.334;21.918;2023-03-19T06:41:21;31.0;;;29.0;;
22673;SDS011;11504;43.334;21.918;2023-03-19T06:45:57;31.0;;;29.0;;
22673;SDS011;11504;43.334;21.918;2023-03-19T06:50:33;31.0;;;29.0;;
22673;SDS011;11504;43.334;21.918;2023-03-19T06:55:10;31.0;;;29.0;;
22673;SDS011;11504;43.334;21.918;2023-03-19T07:08:57;15.0;;;15.0;;
22673;SDS011;11504;43.334;21.918;2023-03-19T07:13:34;15.0;;;15.0;;
22673;SDS011;11504;43.334;21.918;2023-03-19T07:18:10;15.0;;;15.0;;
22673;SDS011;11504;43.334;21.918;2023-03-19T07:22:46;15.0;;;15.0;;
22673;SDS011;11504;43.334;21.918;2023-03-19T07:27:22;15.0;;;15.0;;
22673;SDS011;11504;43.334;21.918;2023-03-19T07:31:58;22.0;;;21.0;;
22673;SDS011;11504;43.334;21.918;2023-03-19T07:36:35;22.0;;;21.0;;
22673;SDS011;11504;43.334;21.918;2023-03-19T07:41:11;28.0;;;27.0;;
22673;SDS011;11504;43.334;21.918;2023-03-19T07:45:47;28.0;;;27.0;;
22673;SDS011;11504;43.334;21.918;2023-03-19T07:50:23;28.0;;;27.0;;
22673;SDS011;11504;43.334;21.918;2023-03-19T07:55:00;28.0;;;27.0;;
22673;SDS011;11504;43.334;21.918;2023-03-19T08:08:50;11.0;;;11.0;;
22673;SDS011;11504;43.334;21.918;2023-03-19T08:13:26;11.0;;;11.0;;
22673;SDS011;11504;43.334;21.918;2023-03-19T08:18:04;11.0;;;11.0;;
22673;SDS011;11504;43.334;21.918;2023-03-19T08:22:41;11.0;;;11.0;;
22673;SDS011;11504;43.334;21.918;2023-03-19T08:27:18;11.0;;;11.0;;
22673;SDS011;11504;43.334;21.918;2023-03-19T08:31:55;20.0;;;19.0;;
22673;SDS011;11504;43.334;21.918;2023-03-19T08:36:32;20.0;;;19.0;;
22673;SDS011;11504;43.334;21.918;2023-03-19T08:41:09;28.0;;;27.0;;
22673;SDS011;11504;43.334;21.918;2023-03-19T08:45:45;28.0;;;27.0;;
22673;SDS011;11504;43.334;21.918;2023-03-19T08:50:21;25.0;;;24.0;;
22673;SDS011;11504;43.334;21.918;2023-03-19T08:54:58;25.0;;;24.0;;
22673;SDS011;11504;43.334;21.918;2023-03-19T08:59:35;22.0;;;21.0;;
22673;SDS011;11504;43.334;21.918;2023-03-19T09:04:12;22.0;;;21.0;;
22673;SDS011;11504;43.334;21.918;2023-03-19T09:08:48;23.0;;;22.0;;
22673;SDS011;11504;43.334;21.918;2023-03-19T09:13:26;23.0;;;22.0;;
22673;SDS011;11504;43.334;21.918;2023-03-19T09:18:02;23.0;;;22.0;;
22673;SDS011;11504;43.334;21.918;2023-03-19T09:22:39;24.0;;;23.0;;
22673;SDS011;11504;43.334;21.918;2023-03-19T09:27:15;24.0;;;23.0;;
22673;SDS011;11504;43.334;21.918;2023-03-19T09:31:52;22.0;;;21.0;;
22673;SDS011;11504;43.334;21.918;2023-03-19T09:36:28;22.0;;;21.0;;
22673;SDS011;11504;43.334;21.918;2023-03-19T09:41:19;20.0;;;19.0;;
22673;SDS011;11504;43.334;21.918;2023-03-19T09:46:29;20.0;;;19.0;;
22673;SDS011;11504;43.334;21.918;2023-03-19T09:51:33;19.0;;;18.0;;
22673;SDS011;11504;43.334;21.918;2023-03-19T09:56:23;19.0;;;18.0;;
22673;SDS011;11504;43.334;21.918;2023-03-19T10:01:02;18.0;;;18.0;;
22673;SDS011;11504;43.334;21.918;2023-03-19T10:05:57;18.0;;;18.0;;
22673;SDS011;11504;43.334;21.918;2023-03-19T10:11:31;16.0;;;16.0;;
22673;SDS011;11504;43.334;21.918;2023-03-19T10:16:27;16.0;;;16.0;;
22673;SDS011;11504;43.334;21.918;2023-03-19T10:21:19;15.0;;;14.0;;
22673;SDS011;11504;43.334;21.918;2023-03-19T10:26:14;15.0;;;14.0;;
22673;SDS011;11504;43.334;21.918;2023-03-19T10:31:13;15.0;;;14.0;;
22673;SDS011;11504;43.334;21.918;2023-03-19T10:36:09;15.0;;;14.0;;
22673;SDS011;11504;43.334;21.918;2023-03-19T10:41:15;15.0;;;15.0;;
22673;SDS011;11504;43.334;21.918;2023-03-19T10:45:58;15.0;;;15.0;;
22673;SDS011;11504;43.334;21.918;2023-03-19T10:50:48;15.0;;;15.0;;
22673;SDS011;11504;43.334;21.918;2023-03-19T10:55:35;15.0;;;15.0;;
22673;SDS011;11504;43.334;21.918;2023-03-19T11:29:01;14.0;;;13.0;;
22673;SDS011;11504;43.334;21.918;2023-03-19T11:34:07;14.0;;;13.0;;
22673;SDS011;11504;43.334;21.918;2023-03-19T11:39:26;14.0;;;13.0;;
22673;SDS011;11504;43.334;21.918;2023-03-19T11:44:25;14.0;;;13.0;;
22673;SDS011;11504;43.334;21.918;2023-03-19T11:49:50;14.0;;;13.0;;
22673;SDS011;11504;43.334;21.918;2023-03-19T11:55:17;14.0;;;13.0;;
22673;SDS011;11504;43.334;21.918;2023-03-19T12:10:44;12.0;;;12.0;;
22673;SDS011;11504;43.334;21.918;2023-03-19T12:15:54;12.0;;;12.0;;
22673;SDS011;11504;43.334;21.918;2023-03-19T12:21:11;12.0;;;12.0;;
22673;SDS011;11504;43.334;21.918;2023-03-19T12:26:03;12.0;;;12.0;;
22673;SDS011;11504;43.334;21.918;2023-03-19T12:30:59;12.0;;;12.0;;
22673;SDS011;11504;43.334;21.918;2023-03-19T12:36:29;12.0;;;12.0;;
22673;SDS011;11504;43.334;21.918;2023-03-19T13:10:23;12.0;;;11.0;;
22673;SDS011;11504;43.334;21.918;2023-03-19T13:15:26;12.0;;;11.0;;
22673;SDS011;11504;43.334;21.918;2023-03-19T13:21:04;12.0;;;11.0;;
22673;SDS011;11504;43.334;21.918;2023-03-19T13:25:57;12.0;;;11.0;;
22673;SDS011;11504;43.334;21.918;2023-03-19T13:30:38;12.0;;;11.0;;
22673;SDS011;11504;43.334;21.918;2023-03-19T13:35:42;12.0;;;11.0;;
22673;SDS011;11504;43.334;21.918;2023-03-19T13:40:58;12.0;;;11.0;;
22673;SDS011;11504;43.334;21.918;2023-03-19T13:45:37;12.0;;;11.0;;
22673;SDS011;11504;43.334;21.918;2023-03-19T13:50:53;12.0;;;12.0;;
22673;SDS011;11504;43.334;21.918;2023-03-19T13:55:57;12.0;;;12.0;;
22673;SDS011;11504;43.334;21.918;2023-03-19T14:01:34;13.0;;;12.0;;
22673;SDS011;11504;43.334;21.918;2023-03-19T14:06:49;13.0;;;12.0;;
22673;SDS011;11504;43.334;21.918;2023-03-19T14:11:36;12.0;;;11.0;;
22673;SDS011;11504;43.334;21.918;2023-03-19T14:16:24;12.0;;;11.0;;
22673;SDS011;11504;43.334;21.918;2023-03-19T14:21:30;10.0;;;10.0;;
22673;SDS011;11504;43.334;21.918;2023-03-19T14:26:20;10.0;;;10.0;;
22673;SDS011;11504;43.334;21.918;2023-03-19T14:30:59;10.0;;;10.0;;
22673;SDS011;11504;43.334;21.918;2023-03-19T14:35:47;10.0;;;10.0;;
22673;SDS011;11504;43.334;21.918;2023-03-19T15:28:58;15.0;;;14.0;;
22673;SDS011;11504;43.334;21.918;2023-03-19T15:33:40;15.0;;;14.0;;
22673;SDS011;11504;43.334;21.918;2023-03-19T15:38:20;15.0;;;14.0;;
22673;SDS011;11504;43.334;21.918;2023-03-19T15:43:02;15.0;;;14.0;;
22673;SDS011;11504;43.334;21.918;2023-03-19T15:47:52;15.0;;;14.0;;
22673;SDS011;11504;43.334;21.918;2023-03-19T15:52:42;19.0;;;18.0;;
22673;SDS011;11504;43.334;21.918;2023-03-19T15:57:24;19.0;;;18.0;;
22673;SDS011;11504;43.334;21.918;2023-03-19T16:02:28;23.0;;;22.0;;
22673;SDS011;11504;43.334;21.918;2023-03-19T16:07:34;23.0;;;22.0;;
22673;SDS011;11504;43.334;21.918;2023-03-19T16:12:39;23.0;;;22.0;;
22673;SDS011;11504;43.334;21.918;2023-03-19T16:17:17;23.0;;;22.0;;
22673;SDS011;11504;43.334;21.918;2023-03-19T16:21:54;23.0;;;21.0;;
22673;SDS011;11504;43.334;21.918;2023-03-19T16:26:42;23.0;;;21.0;;
22673;SDS011;11504;43.334;21.918;2023-03-19T16:31:29;30.0;;;28.0;;
22673;SDS011;11504;43.334;21.918;2023-03-19T16:36:16;30.0;;;28.0;;
22673;SDS011;11504;43.334;21.918;2023-03-19T16:41:22;36.0;;;34.0;;
22673;SDS011;11504;43.334;21.918;2023-03-19T16:46:11;36.0;;;34.0;;
22673;SDS011;11504;43.334;21.918;2023-03-19T16:50:49;36.0;;;34.0;;
22673;SDS011;11504;43.334;21.918;2023-03-19T16:55:31;36.0;;;34.0;;
22673;SDS011;11504;43.334;21.918;2023-03-19T17:09:27;65.0;;;61.0;;
22673;SDS011;11504;43.334;21.918;2023-03-19T17:14:17;65.0;;;61.0;;
22673;SDS011;11504;43.334;21.918;2023-03-19T17:18:56;65.0;;;61.0;;
22673;SDS011;11504;43.334;21.918;2023-03-19T17:23:32;65.0;;;61.0;;
22673;SDS011;11504;43.334;21.918;2023-03-19T17:28:08;65.0;;;61.0;;
22673;SDS011;11504;43.334;21.918;2023-03-19T17:32:48;69.0;;;64.0;;
22673;SDS011;11504;43.334;21.918;2023-03-19T17:37:29;69.0;;;64.0;;
22673;SDS011;11504;43.334;21.918;2023-03-19T17:42:19;73.0;;;68.0;;
22673;SDS011;11504;43.334;21.918;2023-03-19T17:46:56;73.0;;;68.0;;
22673;SDS011;11504;43.334;21.918;2023-03-19T17:51:33;73.0;;;68.0;;
22673;SDS011;11504;43.334;21.918;2023-03-19T17:56:16;73.0;;;68.0;;
22673;SDS011;11504;43.334;21.918;2023-03-19T18:28:50;81.0;;;75.0;;
22673;SDS011;11504;43.334;21.918;2023-03-19T18:33:32;81.0;;;75.0;;
22673;SDS011;11504;43.334;21.918;2023-03-19T18:38:19;81.0;;;75.0;;
22673;SDS011;11504;43.334;21.918;2023-03-19T18:42:57;81.0;;;75.0;;
22673;SDS011;11504;43.334;21.918;2023-03-19T18:47:35;81.0;;;75.0;;
22673;SDS011;11504;43.334;21.918;2023-03-19T18:52:14;82.0;;;77.0;;
22673;SDS011;11504;43.334;21.918;2023-03-19T18:56:50;82.0;;;77.0;;
22673;SDS011;11504;43.334;21.918;2023-03-19T19:01:28;83.0;;;79.0;;
22673;SDS011;11504;43.334;21.918;2023-03-19T19:06:06;83.0;;;79.0;;
22673;SDS011;11504;43.334;21.918;2023-03-19T19:10:52;62.0;;;58.0;;
22673;SDS011;11504;43.334;21.918;2023-03-19T19:15:37;62.0;;;58.0;;
22673;SDS011;11504;43.334;21.918;2023-03-19T19:20:18;40.0;;;38.0;;
22673;SDS011;11504;43.334;21.918;2023-03-19T19:25:01;40.0;;;38.0;;
22673;SDS011;11504;43.334;21.918;2023-03-19T19:29:38;38.0;;;36.0;;
22673;SDS011;11504;43.334;21.918;2023-03-19T19:34:16;38.0;;;36.0;;
22673;SDS011;11504;43.334;21.918;2023-03-19T19:38:53;36.0;;;34.0;;
22673;SDS011;11504;43.334;21.918;2023-03-19T19:43:30;36.0;;;34.0;;
22673;SDS011;11504;43.334;21.918;2023-03-19T19:48:15;36.0;;;34.0;;
22673;SDS011;11504;43.334;21.918;2023-03-19T19:52:58;30.0;;;28.0;;
22673;SDS011;11504;43.334;21.918;2023-03-19T19:57:36;30.0;;;28.0;;
22673;SDS011;11504;43.334;21.918;2023-03-19T20:02:21;24.0;;;21.0;;
22673;SDS011;11504;43.334;21.918;2023-03-19T20:07:03;24.0;;;21.0;;
22673;SDS011;11504;43.334;21.918;2023-03-19T20:11:39;22.0;;;20.0;;
22673;SDS011;11504;43.334;21.918;2023-03-19T20:16:16;22.0;;;20.0;;
22673;SDS011;11504;43.334;21.918;2023-03-19T20:20:56;20.0;;;19.0;;
22673;SDS011;11504;43.334;21.918;2023-03-19T20:25:34;20.0;;;19.0;;
22673;SDS011;11504;43.334;21.918;2023-03-19T20:30:31;20.0;;;19.0;;
22673;SDS011;11504;43.334;21.918;2023-03-19T20:35:20;20.0;;;19.0;;
22673;SDS011;11504;43.334;21.918;2023-03-19T20:40:03;20.0;;;19.0;;
22673;SDS011;11504;43.334;21.918;2023-03-19T20:44:45;20.0;;;19.0;;
22673;SDS011;11504;43.334;21.918;2023-03-19T20:49:23;19.0;;;18.0;;
22673;SDS011;11504;43.334;21.918;2023-03-19T20:54:00;19.0;;;18.0;;
22673;SDS011;11504;43.334;21.918;2023-03-19T20:58:37;19.0;;;18.0;;
22673;SDS011;11504;43.334;21.918;2023-03-19T21:03:19;18.0;;;17.0;;
22673;SDS011;11504;43.334;21.918;2023-03-19T21:08:09;18.0;;;17.0;;
22673;SDS011;11504;43.334;21.918;2023-03-19T21:12:52;18.0;;;17.0;;
22673;SDS011;11504;43.334;21.918;2023-03-19T21:17:28;18.0;;;17.0;;
22673;SDS011;11504;43.334;21.918;2023-03-19T21:31:21;22.0;;;21.0;;
22673;SDS011;11504;43.334;21.918;2023-03-19T21:36:02;22.0;;;21.0;;
22673;SDS011;11504;43.334;21.918;2023-03-19T21:40:47;22.0;;;21.0;;
22673;SDS011;11504;43.334;21.918;2023-03-19T21:45:33;22.0;;;21.0;;
22673;SDS011;11504;43.334;21.918;2023-03-19T21:50:19;30.0;;;28.0;;
22673;SDS011;11504;43.334;21.918;2023-03-19T21:54:55;30.0;;;28.0;;
22673;SDS011;11504;43.334;21.918;2023-03-19T21:59:31;38.0;;;36.0;;
22673;SDS011;11504;43.334;21.918;2023-03-19T22:04:08;38.0;;;36.0;;
22673;SDS011;11504;43.334;21.918;2023-03-19T22:08:45;38.0;;;36.0;;
22673;SDS011;11504;43.334;21.918;2023-03-19T22:13:28;38.0;;;35.0;;
22673;SDS011;11504;43.334;21.918;2023-03-19T22:18:14;38.0;;;35.0;;
22673;SDS011;11504;43.334;21.918;2023-03-19T22:22:52;38.0;;;34.0;;
22673;SDS011;11504;43.334;21.918;2023-03-19T22:27:29;38.0;;;34.0;;
22673;SDS011;11504;43.334;21.918;2023-03-19T22:32:14;34.0;;;31.0;;
22673;SDS011;11504;43.334;21.918;2023-03-19T22:36:53;34.0;;;31.0;;
22673;SDS011;11504;43.334;21.918;2023-03-19T22:41:35;31.0;;;28.0;;
22673;SDS011;11504;43.334;21.918;2023-03-19T22:46:18;31.0;;;28.0;;
22673;SDS011;11504;43.334;21.918;2023-03-19T22:50:56;31.0;;;28.0;;
22673;SDS011;11504;43.334;21.918;2023-03-19T22:55:32;31.0;;;28.0;;
22673;SDS011;11504;43.334;21.918;2023-03-19T23:09:34;42.0;;;39.0;;
22673;SDS011;11504;43.334;21.918;2023-03-19T23:14:11;42.0;;;39.0;;
22673;SDS011;11504;43.334;21.918;2023-03-19T23:18:51;42.0;;;39.0;;
22673;SDS011;11504;43.334;21.918;2023-03-19T23:23:30;42.0;;;39.0;;
22673;SDS011;11504;43.334;21.918;2023-03-19T23:28:25;42.0;;;39.0;;
22673;SDS011;11504;43.334;21.918;2023-03-19T23:33:13;42.0;;;39.0;;
22673;SDS011;11504;43.334;21.918;2023-03-19T23:37:53;42.0;;;39.0;;
22673;SDS011;11504;43.334;21.918;2023-03-19T23:42:32;41.0;;;39.0;;
22673;SDS011;11504;43.334;21.918;2023-03-19T23:47:10;41.0;;;39.0;;
22673;SDS011;11504;43.334;21.918;2023-03-19T23:51:47;47.0;;;44.0;;
22673;SDS011;11504;43.334;21.918;2023-03-19T23:56:27;47.0;;;44.0;;
